Whale Point, California Weather observations

Data are for observation ending at time listed.
 Day   Time    Ave.   Ave.  Ave.  Vector   Max.   Stn.    Total    Solar   Ave.  
  of    of     Air    Rel.  Wind   Wind    Wind   Baro.  Precip.   Rad.    Soil  
Year   Day     Temp.  Hum.  Speed  Dir.    Gust   Pres.                    Temp. 
2014   (PST)    F      %     mph   deg.    mph     mb.     in.     W/m2     F   
------------------------------------------------------------------------------
 353    0:00   52.5    78    6.3    65     10.7   1001.7    0.00       0    56.5
 353    0:10   52.0    77    7.5    73     10.9   1001.0    0.00       0    56.5
 353    0:20   52.0    76    6.9    59      9.3   1000.7    0.00       0    56.5
 353    0:30   52.8    75    3.9    26      7.4   1001.4    0.00       0    56.4
 353    0:40   53.4    75    1.3    25      3.5   1002.0    0.00       0    56.4
 353    0:50   53.9    77    1.8    37      3.6   1001.7    0.00       0    56.4
 353    1:00   53.4    77    5.4    64      9.1   1001.7    0.00       0    56.3
 353    1:10   53.0    75    7.5    74      9.6   1001.4    0.00       0    56.3
 353    1:20   53.1    76    6.4    67      8.8   1001.4    0.00       0    56.3
 353    1:30   53.5    76    6.7    56      8.9   1001.4    0.00       0    56.2
 353    1:40   53.4    76    6.6    42      8.3   1001.4    0.00       0    56.2
 353    1:50   53.4    76    6.3    63      9.0   1001.4    0.00       0    56.2
 353    2:00   53.3    77    7.2    69      9.1   1001.4    0.00       0    56.1
 353    2:10   53.1    77    7.5    63      9.3   1001.4    0.00       0    56.1
 353    2:20   52.8    77    8.4    63     10.7   1001.4    0.00       0    56.0
 353    2:30   53.0    76    8.0    56     10.8   1001.4    0.00       0    56.0
 353    2:40   53.0    75    6.8    38      8.9   1001.4    0.00       0    56.0
 353    2:50   53.1    74    5.2    50      7.9   1001.0    0.00       0    55.9
 353    3:00   53.1    73    7.2    41     11.5   1001.0    0.00       0    55.9
 353    3:10   53.5    71    8.2    39     11.9   1001.0    0.00       0    55.9
 353    3:20   53.9    69    7.3    50      9.0   1000.7    0.00       0    55.8
 353    3:30   53.7    69    6.8    38      9.7   1000.7    0.00       0    55.8
 353    3:40   53.5    69    7.5    61      9.7   1000.3    0.00       0    55.8
 353    3:50   53.6    68    5.9    68      7.7   1000.7    0.00       0    55.8
 353    4:00   53.3    69    6.6    65      9.3   1000.7    0.00       0    55.7
 353    4:10   53.3    68    5.8    69      8.6   1000.7    0.00       0    55.7
 353    4:20   53.3    69    5.5    62      7.2   1000.7    0.00       0    55.6
 353    4:30   53.4    69    5.6    67      7.7   1000.7    0.00       0    55.6
 353    4:40   53.6    69    6.4    65      8.5   1000.7    0.00       0    55.6
 353    4:50   53.6    70    7.0    68     10.2   1000.3    0.00       0    55.5
 353    5:00   53.9    70    4.1    62      6.2   1000.3    0.00       0    55.5
 353    5:10   54.2    70    1.8    62      3.7   1000.7    0.00       0    55.5
 353    5:20   54.6    69    1.2    61      2.6   1001.0    0.00       0    55.4
 353    5:30   54.7    71    0.6   328      2.3   1001.0    0.00       0    55.4
 353    5:40   54.4    74    3.2    48      6.6   1001.0    0.00       0    55.3
 353    5:50   53.3    76    6.2    67      7.8   1000.7    0.00       0    55.3
 353    6:00   53.2    76    4.6    77      7.1   1000.7    0.00       0    55.3
 353    6:10   53.4    76    4.9    63      5.9   1000.3    0.00       0    55.3
 353    6:20   53.6    76    4.5    63      5.6   1000.3    0.00       0    55.3
 353    6:30   53.6    76    4.8    72      7.2   1000.3    0.00       0    55.2
 353    6:40   53.8    75    4.7    74      7.7   1000.3    0.00       0    55.2
 353    6:50   54.0    74    2.4   198      4.9   1000.7    0.00       0    55.2
 353    7:00   54.4    75    1.7   146      4.6   1000.7    0.00       0    55.2
 353    7:10   55.1    74    0.8   340      5.0   1000.3    0.00       2    55.1
 353    7:20   54.4    75    2.4    63      5.6   1000.7    0.00       6    55.1
 353    7:30   54.1    75    5.3    66      7.5   1000.7    0.00       8    55.1
 353    7:40   54.4    74    4.6    51      6.2   1000.7    0.00      10    55.1
 353    7:50   55.2    74    1.4   146      4.2   1000.7    0.00      13    55.1
 353    8:00   55.0    76    1.4    53      3.7   1001.0    0.00      20    55.1
 353    8:10   54.8    76    2.3    62      5.7   1001.0    0.00      30    55.1
 353    8:20   54.9    76    1.6    68      4.7   1001.0    0.00      33    55.0
 353    8:30   55.2    76    1.5    34      4.5   1001.0    0.00      35    55.0
 353    8:40   55.4    76    2.0     1      5.7   1001.4    0.00      42    55.0
 353    8:50   55.4    77    1.5    30      3.2   1001.7    0.00      39    55.0
 353    9:00   55.5    76    3.3    56      5.3   1001.7    0.00      40    55.0
 353    9:10   54.8    80    4.2    54      6.6   1002.0    0.00      49    55.0
 353    9:20   54.4    82    4.2    74      7.8   1002.0    0.00      59    55.0
 353    9:30   54.6    80    4.2    66      8.7   1002.4    0.00      54    55.0
 353    9:40   54.4    81    4.9    53      8.9   1002.7    0.00      54    55.0
 353    9:50   54.8    81    2.5    69      7.5   1002.7    0.00      57    55.0
 353   10:00   54.2    83    3.2    44      4.5   1003.1    0.00      48    55.0
 353   10:10   53.7    86    4.9    37      6.3   1003.1    0.00      42    55.0
 353   10:20   53.3    87    4.4    48      5.8   1002.7    0.01      69    55.0
 353   10:30   53.2    89    3.7    51      5.4   1002.4    0.00      98    55.0
 353   10:40   53.7    89    2.8   146      5.6   1002.4    0.00     132    55.0
 353   10:50   54.2    90    1.1   135      3.3   1002.0    0.00     119    55.0
 353   11:00   54.1    89    5.9    48      9.3   1001.7    0.00     129    55.0
 353   11:10   54.7    84    6.1    49      8.8   1001.4    0.00     141    55.0
 353   11:20   55.8    83    1.5   113      6.1   1001.4    0.00     188    55.0
 353   11:30   56.1    84    0.7    22      1.6   1001.0    0.00     200    55.0
 353   11:40   56.5    84    1.7     2      3.9   1000.7    0.00     184    55.1
 353   11:50   56.7    83    1.7   224      5.6   1000.7    0.00     179    55.1
 353   12:00   56.9    82    1.9   207      5.1   1000.7    0.00     112    55.1
 353   12:10   57.3    82    1.6   324      4.0   1000.7    0.00     256    55.1
 353   12:20   57.7    82    3.2   264     10.6   1000.3    0.00     264    55.1
 353   12:30   56.4    85    2.4   251     10.2   1000.3    0.00     160    55.2

Return to Whale Point graphs page.


Western Regional Climate Center,wrcc@dri.edu